sensor_id;sensor_type;location;lat;lon;timestamp;temperature;humidity
22469;DHT22;11401;50.792;4.352;2024-02-14T00:00:54;16.80;58.00
22469;DHT22;11401;50.792;4.352;2024-02-14T00:03:22;16.80;58.80
22469;DHT22;11401;50.792;4.352;2024-02-14T00:05:50;16.90;58.40
22469;DHT22;11401;50.792;4.352;2024-02-14T00:08:19;16.80;57.90
22469;DHT22;11401;50.792;4.352;2024-02-14T00:10:47;16.60;58.00
22469;DHT22;11401;50.792;4.352;2024-02-14T00:13:15;16.70;58.50
22469;DHT22;11401;50.792;4.352;2024-02-14T00:15:45;16.60;58.50
22469;DHT22;11401;50.792;4.352;2024-02-14T00:18:14;16.50;58.60
22469;DHT22;11401;50.792;4.352;2024-02-14T00:20:42;16.40;58.80
22469;DHT22;11401;50.792;4.352;2024-02-14T00:23:09;16.30;59.30
22469;DHT22;11401;50.792;4.352;2024-02-14T00:25:36;16.40;59.70
22469;DHT22;11401;50.792;4.352;2024-02-14T00:28:04;16.40;59.60
22469;DHT22;11401;50.792;4.352;2024-02-14T00:30:32;16.40;59.10
22469;DHT22;11401;50.792;4.352;2024-02-14T00:32:59;16.30;59.20
22469;DHT22;11401;50.792;4.352;2024-02-14T00:35:27;16.30;59.30
22469;DHT22;11401;50.792;4.352;2024-02-14T00:37:54;16.30;59.50
22469;DHT22;11401;50.792;4.352;2024-02-14T00:40:22;16.30;59.30
22469;DHT22;11401;50.792;4.352;2024-02-14T00:42:49;16.40;59.60
22469;DHT22;11401;50.792;4.352;2024-02-14T00:45:16;16.60;59.80
22469;DHT22;11401;50.792;4.352;2024-02-14T00:47:43;16.60;59.10
22469;DHT22;11401;50.792;4.352;2024-02-14T00:50:10;16.50;59.10
22469;DHT22;11401;50.792;4.352;2024-02-14T00:52:40;16.70;59.90
22469;DHT22;11401;50.792;4.352;2024-02-14T00:55:08;16.80;59.30
22469;DHT22;11401;50.792;4.352;2024-02-14T00:57:35;16.70;58.60
22469;DHT22;11401;50.792;4.352;2024-02-14T01:00:03;16.60;58.80
22469;DHT22;11401;50.792;4.352;2024-02-14T01:02:31;16.60;59.10
22469;DHT22;11401;50.792;4.352;2024-02-14T01:04:58;16.70;58.90
22469;DHT22;11401;50.792;4.352;2024-02-14T01:07:25;16.70;59.10
22469;DHT22;11401;50.792;4.352;2024-02-14T01:09:52;16.80;59.20
22469;DHT22;11401;50.792;4.352;2024-02-14T01:12:19;16.80;58.70
22469;DHT22;11401;50.792;4.352;2024-02-14T01:14:46;16.80;58.80
22469;DHT22;11401;50.792;4.352;2024-02-14T01:17:13;16.80;59.10
22469;DHT22;11401;50.792;4.352;2024-02-14T01:19:40;16.70;58.50
22469;DHT22;11401;50.792;4.352;2024-02-14T01:22:07;16.60;58.90
22469;DHT22;11401;50.792;4.352;2024-02-14T01:24:35;16.80;60.20
22469;DHT22;11401;50.792;4.352;2024-02-14T01:27:02;17.00;59.90
22469;DHT22;11401;50.792;4.352;2024-02-14T01:29:30;17.00;58.80
22469;DHT22;11401;50.792;4.352;2024-02-14T01:31:57;17.10;59.00
22469;DHT22;11401;50.792;4.352;2024-02-14T01:34:24;17.00;58.20
22469;DHT22;11401;50.792;4.352;2024-02-14T01:36:52;17.00;58.80
22469;DHT22;11401;50.792;4.352;2024-02-14T01:39:19;17.00;59.10
22469;DHT22;11401;50.792;4.352;2024-02-14T01:41:47;17.00;58.70
22469;DHT22;11401;50.792;4.352;2024-02-14T01:44:16;16.90;58.20
22469;DHT22;11401;50.792;4.352;2024-02-14T01:46:44;16.80;58.20
22469;DHT22;11401;50.792;4.352;2024-02-14T01:49:12;16.80;58.80
22469;DHT22;11401;50.792;4.352;2024-02-14T01:51:41;16.80;58.70
22469;DHT22;11401;50.792;4.352;2024-02-14T01:54:12;16.90;59.50
22469;DHT22;11401;50.792;4.352;2024-02-14T01:56:40;16.90;58.90
22469;DHT22;11401;50.792;4.352;2024-02-14T01:59:09;17.10;59.30
22469;DHT22;11401;50.792;4.352;2024-02-14T02:01:36;17.20;58.90
22469;DHT22;11401;50.792;4.352;2024-02-14T02:04:04;17.10;58.10
22469;DHT22;11401;50.792;4.352;2024-02-14T02:06:32;17.00;58.40
22469;DHT22;11401;50.792;4.352;2024-02-14T02:09:00;17.00;58.70
22469;DHT22;11401;50.792;4.352;2024-02-14T02:11:27;16.90;58.60
22469;DHT22;11401;50.792;4.352;2024-02-14T02:13:55;16.70;59.00
22469;DHT22;11401;50.792;4.352;2024-02-14T02:16:22;16.80;59.40
22469;DHT22;11401;50.792;4.352;2024-02-14T02:18:49;16.70;59.20
22469;DHT22;11401;50.792;4.352;2024-02-14T02:21:17;16.80;59.60
22469;DHT22;11401;50.792;4.352;2024-02-14T02:23:50;16.70;59.00
22469;DHT22;11401;50.792;4.352;2024-02-14T02:26:17;16.70;59.70
22469;DHT22;11401;50.792;4.352;2024-02-14T02:28:44;16.60;59.50
22469;DHT22;11401;50.792;4.352;2024-02-14T02:31:12;16.50;59.80
22469;DHT22;11401;50.792;4.352;2024-02-14T02:33:39;16.50;60.30
22469;DHT22;11401;50.792;4.352;2024-02-14T02:36:07;16.60;60.60
22469;DHT22;11401;50.792;4.352;2024-02-14T02:38:37;16.60;60.50
22469;DHT22;11401;50.792;4.352;2024-02-14T02:41:04;16.60;60.30
22469;DHT22;11401;50.792;4.352;2024-02-14T02:43:33;16.70;60.90
22469;DHT22;11401;50.792;4.352;2024-02-14T02:46:01;16.60;60.00
22469;DHT22;11401;50.792;4.352;2024-02-14T02:48:28;16.50;60.30
22469;DHT22;11401;50.792;4.352;2024-02-14T02:50:55;16.60;61.10
22469;DHT22;11401;50.792;4.352;2024-02-14T02:53:23;16.40;60.40
22469;DHT22;11401;50.792;4.352;2024-02-14T02:55:50;16.40;61.00
22469;DHT22;11401;50.792;4.352;2024-02-14T02:58:18;16.30;61.10
22469;DHT22;11401;50.792;4.352;2024-02-14T03:00:47;16.30;61.20
22469;DHT22;11401;50.792;4.352;2024-02-14T03:03:16;16.40;61.40
22469;DHT22;11401;50.792;4.352;2024-02-14T03:05:43;16.60;61.20
22469;DHT22;11401;50.792;4.352;2024-02-14T03:08:13;16.60;60.90
22469;DHT22;11401;50.792;4.352;2024-02-14T03:10:42;16.50;61.10
22469;DHT22;11401;50.792;4.352;2024-02-14T03:13:09;16.50;60.60
22469;DHT22;11401;50.792;4.352;2024-02-14T03:15:38;16.50;60.60
22469;DHT22;11401;50.792;4.352;2024-02-14T03:18:05;16.60;60.80
22469;DHT22;11401;50.792;4.352;2024-02-14T03:20:37;16.70;61.10
22469;DHT22;11401;50.792;4.352;2024-02-14T03:23:04;16.70;60.60
22469;DHT22;11401;50.792;4.352;2024-02-14T03:25:32;16.60;60.60
22469;DHT22;11401;50.792;4.352;2024-02-14T03:27:59;16.70;60.90
22469;DHT22;11401;50.792;4.352;2024-02-14T03:30:26;16.80;60.50
22469;DHT22;11401;50.792;4.352;2024-02-14T03:32:54;16.80;60.20
22469;DHT22;11401;50.792;4.352;2024-02-14T03:35:23;16.80;60.80
22469;DHT22;11401;50.792;4.352;2024-02-14T03:37:50;16.70;60.20
22469;DHT22;11401;50.792;4.352;2024-02-14T03:40:19;16.70;60.90
22469;DHT22;11401;50.792;4.352;2024-02-14T03:42:47;16.60;61.10
22469;DHT22;11401;50.792;4.352;2024-02-14T03:45:14;16.60;61.40
22469;DHT22;11401;50.792;4.352;2024-02-14T03:47:41;16.50;61.00
22469;DHT22;11401;50.792;4.352;2024-02-14T03:50:09;16.50;61.60
22469;DHT22;11401;50.792;4.352;2024-02-14T03:52:36;16.60;62.20
22469;DHT22;11401;50.792;4.352;2024-02-14T03:55:05;16.60;61.50
22469;DHT22;11401;50.792;4.352;2024-02-14T03:57:32;16.60;61.50
22469;DHT22;11401;50.792;4.352;2024-02-14T04:00:02;16.60;61.80
22469;DHT22;11401;50.792;4.352;2024-02-14T04:02:37;16.70;62.10
22469;DHT22;11401;50.792;4.352;2024-02-14T04:05:07;16.70;61.10
22469;DHT22;11401;50.792;4.352;2024-02-14T04:07:34;16.70;61.40
22469;DHT22;11401;50.792;4.352;2024-02-14T04:10:01;16.50;61.30
22469;DHT22;11401;50.792;4.352;2024-02-14T04:12:28;16.60;62.10
22469;DHT22;11401;50.792;4.352;2024-02-14T04:14:55;16.60;61.90
22469;DHT22;11401;50.792;4.352;2024-02-14T04:17:23;16.70;61.90
22469;DHT22;11401;50.792;4.352;2024-02-14T04:19:51;16.60;61.90
22469;DHT22;11401;50.792;4.352;2024-02-14T04:22:18;16.60;62.10
22469;DHT22;11401;50.792;4.352;2024-02-14T04:24:45;16.60;62.10
22469;DHT22;11401;50.792;4.352;2024-02-14T04:27:13;16.70;61.90
22469;DHT22;11401;50.792;4.352;2024-02-14T04:29:41;16.70;61.90
22469;DHT22;11401;50.792;4.352;2024-02-14T04:32:11;16.70;62.10
22469;DHT22;11401;50.792;4.352;2024-02-14T04:34:39;16.60;61.90
22469;DHT22;11401;50.792;4.352;2024-02-14T04:37:07;16.50;62.10
22469;DHT22;11401;50.792;4.352;2024-02-14T04:39:37;16.70;62.50
22469;DHT22;11401;50.792;4.352;2024-02-14T04:42:04;16.80;62.20
22469;DHT22;11401;50.792;4.352;2024-02-14T04:44:33;16.60;61.70
22469;DHT22;11401;50.792;4.352;2024-02-14T04:47:01;16.70;62.30
22469;DHT22;11401;50.792;4.352;2024-02-14T04:49:28;16.80;62.20
22469;DHT22;11401;50.792;4.352;2024-02-14T04:51:57;16.70;61.50
22469;DHT22;11401;50.792;4.352;2024-02-14T04:54:24;16.50;62.10
22469;DHT22;11401;50.792;4.352;2024-02-14T04:56:53;16.50;62.20
22469;DHT22;11401;50.792;4.352;2024-02-14T04:59:25;16.50;62.60
22469;DHT22;11401;50.792;4.352;2024-02-14T05:01:52;16.70;63.30
22469;DHT22;11401;50.792;4.352;2024-02-14T05:04:20;16.70;62.00
22469;DHT22;11401;50.792;4.352;2024-02-14T05:06:49;16.50;62.30
22469;DHT22;11401;50.792;4.352;2024-02-14T05:09:18;16.40;63.00
22469;DHT22;11401;50.792;4.352;2024-02-14T05:11:45;16.40;62.50
22469;DHT22;11401;50.792;4.352;2024-02-14T05:14:12;16.40;63.00
22469;DHT22;11401;50.792;4.352;2024-02-14T05:16:39;16.40;63.10
22469;DHT22;11401;50.792;4.352;2024-02-14T05:19:06;16.40;63.20
22469;DHT22;11401;50.792;4.352;2024-02-14T05:21:34;16.40;63.50
22469;DHT22;11401;50.792;4.352;2024-02-14T05:24:01;16.40;63.30
22469;DHT22;11401;50.792;4.352;2024-02-14T05:26:28;16.40;63.20
22469;DHT22;11401;50.792;4.352;2024-02-14T05:28:55;16.40;63.20
22469;DHT22;11401;50.792;4.352;2024-02-14T05:31:22;16.50;63.10
22469;DHT22;11401;50.792;4.352;2024-02-14T05:33:50;16.40;63.00
22469;DHT22;11401;50.792;4.352;2024-02-14T05:36:17;16.50;63.60
22469;DHT22;11401;50.792;4.352;2024-02-14T05:38:44;16.50;63.10
22469;DHT22;11401;50.792;4.352;2024-02-14T05:41:12;16.60;63.10
22469;DHT22;11401;50.792;4.352;2024-02-14T05:43:39;16.50;62.50
22469;DHT22;11401;50.792;4.352;2024-02-14T05:46:06;16.70;63.10
22469;DHT22;11401;50.792;4.352;2024-02-14T05:48:36;16.70;62.80
22469;DHT22;11401;50.792;4.352;2024-02-14T05:51:07;16.80;62.90
22469;DHT22;11401;50.792;4.352;2024-02-14T05:53:34;16.90;62.20
22469;DHT22;11401;50.792;4.352;2024-02-14T05:56:02;16.80;61.70
22469;DHT22;11401;50.792;4.352;2024-02-14T05:58:29;16.80;62.30
22469;DHT22;11401;50.792;4.352;2024-02-14T06:00:56;16.80;62.10
22469;DHT22;11401;50.792;4.352;2024-02-14T06:03:23;16.80;61.90
22469;DHT22;11401;50.792;4.352;2024-02-14T06:05:51;16.80;61.90
22469;DHT22;11401;50.792;4.352;2024-02-14T06:08:18;16.70;61.90
22469;DHT22;11401;50.792;4.352;2024-02-14T06:10:45;16.60;62.30
22469;DHT22;11401;50.792;4.352;2024-02-14T06:13:12;16.70;62.50
22469;DHT22;11401;50.792;4.352;2024-02-14T06:15:39;16.50;62.50
22469;DHT22;11401;50.792;4.352;2024-02-14T06:18:06;16.30;63.00
22469;DHT22;11401;50.792;4.352;2024-02-14T06:20:33;16.30;63.50
22469;DHT22;11401;50.792;4.352;2024-02-14T06:23:00;16.20;63.90
22469;DHT22;11401;50.792;4.352;2024-02-14T06:25:32;16.10;64.30
22469;DHT22;11401;50.792;4.352;2024-02-14T06:27:59;16.20;64.20
22469;DHT22;11401;50.792;4.352;2024-02-14T06:30:26;16.10;64.20
22469;DHT22;11401;50.792;4.352;2024-02-14T06:32:58;16.10;64.30
22469;DHT22;11401;50.792;4.352;2024-02-14T06:35:30;16.10;64.30
22469;DHT22;11401;50.792;4.352;2024-02-14T06:38:00;16.10;64.30
22469;DHT22;11401;50.792;4.352;2024-02-14T06:40:31;16.10;64.30
22469;DHT22;11401;50.792;4.352;2024-02-14T06:42:59;16.10;64.40
22469;DHT22;11401;50.792;4.352;2024-02-14T06:45:28;16.10;64.40
22469;DHT22;11401;50.792;4.352;2024-02-14T06:47:55;16.10;64.40
22469;DHT22;11401;50.792;4.352;2024-02-14T06:50:22;16.20;64.60
22469;DHT22;11401;50.792;4.352;2024-02-14T06:52:52;16.20;64.50
22469;DHT22;11401;50.792;4.352;2024-02-14T06:55:19;16.10;64.60
22469;DHT22;11401;50.792;4.352;2024-02-14T06:57:46;16.20;64.70
22469;DHT22;11401;50.792;4.352;2024-02-14T07:00:13;16.20;64.40
22469;DHT22;11401;50.792;4.352;2024-02-14T07:02:42;16.30;64.10
22469;DHT22;11401;50.792;4.352;2024-02-14T07:05:10;16.30;64.10
22469;DHT22;11401;50.792;4.352;2024-02-14T07:07:40;16.30;64.10
22469;DHT22;11401;50.792;4.352;2024-02-14T07:10:08;16.30;64.00
22469;DHT22;11401;50.792;4.352;2024-02-14T07:12:36;16.30;63.80
22469;DHT22;11401;50.792;4.352;2024-02-14T07:15:04;16.30;64.00
22469;DHT22;11401;50.792;4.352;2024-02-14T07:17:32;16.40;64.20
22469;DHT22;11401;50.792;4.352;2024-02-14T07:20:01;16.40;64.00
22469;DHT22;11401;50.792;4.352;2024-02-14T07:22:29;16.40;64.10
22469;DHT22;11401;50.792;4.352;2024-02-14T07:24:57;16.40;63.80
22469;DHT22;11401;50.792;4.352;2024-02-14T07:27:24;16.40;63.80
22469;DHT22;11401;50.792;4.352;2024-02-14T07:29:52;16.40;64.10
22469;DHT22;11401;50.792;4.352;2024-02-14T07:32:20;16.40;64.00
22469;DHT22;11401;50.792;4.352;2024-02-14T07:34:47;16.50;63.60
22469;DHT22;11401;50.792;4.352;2024-02-14T07:37:15;16.50;64.00
22469;DHT22;11401;50.792;4.352;2024-02-14T07:39:45;16.50;63.70
22469;DHT22;11401;50.792;4.352;2024-02-14T07:42:13;16.50;63.70
22469;DHT22;11401;50.792;4.352;2024-02-14T07:44:40;16.60;63.50
22469;DHT22;11401;50.792;4.352;2024-02-14T07:47:07;16.70;63.30
22469;DHT22;11401;50.792;4.352;2024-02-14T07:49:35;16.70;63.00
22469;DHT22;11401;50.792;4.352;2024-02-14T07:52:03;16.60;63.30
22469;DHT22;11401;50.792;4.352;2024-02-14T07:54:30;16.60;63.40
22469;DHT22;11401;50.792;4.352;2024-02-14T07:56:57;16.70;63.40
22469;DHT22;11401;50.792;4.352;2024-02-14T07:59:25;16.60;63.60
22469;DHT22;11401;50.792;4.352;2024-02-14T08:01:54;16.60;63.50
22469;DHT22;11401;50.792;4.352;2024-02-14T08:04:21;16.50;63.90
22469;DHT22;11401;50.792;4.352;2024-02-14T08:06:48;16.50;64.00
22469;DHT22;11401;50.792;4.352;2024-02-14T08:09:18;16.40;64.10
22469;DHT22;11401;50.792;4.352;2024-02-14T08:11:45;16.50;64.10
22469;DHT22;11401;50.792;4.352;2024-02-14T08:14:12;16.50;63.80
22469;DHT22;11401;50.792;4.352;2024-02-14T08:16:39;16.50;63.80
22469;DHT22;11401;50.792;4.352;2024-02-14T08:19:06;16.50;64.10
22469;DHT22;11401;50.792;4.352;2024-02-14T08:21:33;16.50;64.50
22469;DHT22;11401;50.792;4.352;2024-02-14T08:24:01;16.50;64.20
22469;DHT22;11401;50.792;4.352;2024-02-14T08:26:28;16.50;64.50
22469;DHT22;11401;50.792;4.352;2024-02-14T08:28:56;16.50;64.40
22469;DHT22;11401;50.792;4.352;2024-02-14T08:31:23;16.50;64.50
22469;DHT22;11401;50.792;4.352;2024-02-14T08:33:50;16.50;64.50
22469;DHT22;11401;50.792;4.352;2024-02-14T08:36:18;16.50;64.80
22469;DHT22;11401;50.792;4.352;2024-02-14T08:38:47;16.50;64.40
22469;DHT22;11401;50.792;4.352;2024-02-14T08:41:15;16.60;64.70
22469;DHT22;11401;50.792;4.352;2024-02-14T08:43:42;16.50;64.50
22469;DHT22;11401;50.792;4.352;2024-02-14T08:46:13;16.50;64.70
22469;DHT22;11401;50.792;4.352;2024-02-14T08:48:42;16.70;64.70
22469;DHT22;11401;50.792;4.352;2024-02-14T08:51:15;16.60;64.50
22469;DHT22;11401;50.792;4.352;2024-02-14T08:53:44;16.50;64.60
22469;DHT22;11401;50.792;4.352;2024-02-14T08:56:13;16.60;65.00
22469;DHT22;11401;50.792;4.352;2024-02-14T08:58:41;16.60;64.30
22469;DHT22;11401;50.792;4.352;2024-02-14T09:01:09;16.60;64.70
22469;DHT22;11401;50.792;4.352;2024-02-14T09:03:42;16.60;64.50
22469;DHT22;11401;50.792;4.352;2024-02-14T09:06:18;16.60;64.50
22469;DHT22;11401;50.792;4.352;2024-02-14T09:08:46;16.60;64.50
22469;DHT22;11401;50.792;4.352;2024-02-14T09:11:13;16.60;64.70
22469;DHT22;11401;50.792;4.352;2024-02-14T09:13:41;16.70;64.80
22469;DHT22;11401;50.792;4.352;2024-02-14T09:16:08;16.70;64.60
22469;DHT22;11401;50.792;4.352;2024-02-14T09:18:37;16.70;64.60
22469;DHT22;11401;50.792;4.352;2024-02-14T09:21:05;16.70;64.70
22469;DHT22;11401;50.792;4.352;2024-02-14T09:23:33;16.80;64.60
22469;DHT22;11401;50.792;4.352;2024-02-14T09:26:01;16.70;64.60
22469;DHT22;11401;50.792;4.352;2024-02-14T09:28:29;16.80;64.50
22469;DHT22;11401;50.792;4.352;2024-02-14T09:30:56;16.90;64.40
22469;DHT22;11401;50.792;4.352;2024-02-14T09:33:23;16.80;64.30
22469;DHT22;11401;50.792;4.352;2024-02-14T09:35:50;16.80;64.60
22469;DHT22;11401;50.792;4.352;2024-02-14T09:38:19;16.80;64.80
22469;DHT22;11401;50.792;4.352;2024-02-14T09:40:46;16.90;64.50
22469;DHT22;11401;50.792;4.352;2024-02-14T09:45:52;16.80;64.50
22469;DHT22;11401;50.792;4.352;2024-02-14T09:48:21;16.80;64.90
22469;DHT22;11401;50.792;4.352;2024-02-14T09:50:49;16.80;65.00
22469;DHT22;11401;50.792;4.352;2024-02-14T09:53:17;16.90;64.50
22469;DHT22;11401;50.792;4.352;2024-02-14T09:55:46;16.90;64.50
22469;DHT22;11401;50.792;4.352;2024-02-14T09:58:13;16.80;64.70
22469;DHT22;11401;50.792;4.352;2024-02-14T10:00:40;16.80;64.90
22469;DHT22;11401;50.792;4.352;2024-02-14T10:03:08;16.90;64.90
22469;DHT22;11401;50.792;4.352;2024-02-14T10:05:36;17.00;64.90
22469;DHT22;11401;50.792;4.352;2024-02-14T10:08:04;17.00;64.70
22469;DHT22;11401;50.792;4.352;2024-02-14T10:10:32;17.00;64.40
22469;DHT22;11401;50.792;4.352;2024-02-14T10:13:06;17.00;64.70
22469;DHT22;11401;50.792;4.352;2024-02-14T10:15:34;17.10;64.20
22469;DHT22;11401;50.792;4.352;2024-02-14T10:18:02;17.10;64.00
22469;DHT22;11401;50.792;4.352;2024-02-14T10:20:30;17.00;64.60
22469;DHT22;11401;50.792;4.352;2024-02-14T10:23:02;16.90;65.00
22469;DHT22;11401;50.792;4.352;2024-02-14T10:25:30;16.90;65.10
22469;DHT22;11401;50.792;4.352;2024-02-14T10:28:05;16.90;65.40
22469;DHT22;11401;50.792;4.352;2024-02-14T10:30:36;16.90;65.50
22469;DHT22;11401;50.792;4.352;2024-02-14T10:33:05;17.00;65.40
22469;DHT22;11401;50.792;4.352;2024-02-14T10:35:52;17.10;65.30
22469;DHT22;11401;50.792;4.352;2024-02-14T10:38:22;17.00;66.10
22469;DHT22;11401;50.792;4.352;2024-02-14T10:40:49;17.00;65.50
22469;DHT22;11401;50.792;4.352;2024-02-14T10:43:18;16.90;65.60
22469;DHT22;11401;50.792;4.352;2024-02-14T10:45:45;16.90;65.80
22469;DHT22;11401;50.792;4.352;2024-02-14T10:48:12;16.80;66.10
22469;DHT22;11401;50.792;4.352;2024-02-14T10:50:41;16.80;66.20
22469;DHT22;11401;50.792;4.352;2024-02-14T10:53:16;16.80;66.10
22469;DHT22;11401;50.792;4.352;2024-02-14T10:55:47;16.80;66.30
22469;DHT22;11401;50.792;4.352;2024-02-14T10:58:17;16.80;66.30
22469;DHT22;11401;50.792;4.352;2024-02-14T11:00:46;16.80;66.40
22469;DHT22;11401;50.792;4.352;2024-02-14T11:03:13;16.80;66.10
22469;DHT22;11401;50.792;4.352;2024-02-14T11:05:48;16.90;66.10
22469;DHT22;11401;50.792;4.352;2024-02-14T11:08:19;16.90;65.90
22469;DHT22;11401;50.792;4.352;2024-02-14T11:10:56;16.90;66.90
22469;DHT22;11401;50.792;4.352;2024-02-14T11:13:27;16.90;66.20
22469;DHT22;11401;50.792;4.352;2024-02-14T11:16:01;16.90;66.20
22469;DHT22;11401;50.792;4.352;2024-02-14T11:18:28;16.90;66.80
22469;DHT22;11401;50.792;4.352;2024-02-14T11:21:04;16.90;67.10
22469;DHT22;11401;50.792;4.352;2024-02-14T11:23:32;16.90;66.80
22469;DHT22;11401;50.792;4.352;2024-02-14T11:26:05;17.00;66.80
22469;DHT22;11401;50.792;4.352;2024-02-14T11:28:37;17.10;66.60
22469;DHT22;11401;50.792;4.352;2024-02-14T11:31:07;17.10;66.40
22469;DHT22;11401;50.792;4.352;2024-02-14T11:33:36;17.10;66.30
22469;DHT22;11401;50.792;4.352;2024-02-14T11:36:10;17.10;66.40
22469;DHT22;11401;50.792;4.352;2024-02-14T11:38:40;17.10;66.50
22469;DHT22;11401;50.792;4.352;2024-02-14T11:41:10;17.00;66.40
22469;DHT22;11401;50.792;4.352;2024-02-14T11:43:37;17.00;66.50
22469;DHT22;11401;50.792;4.352;2024-02-14T11:46:06;17.10;66.70
22469;DHT22;11401;50.792;4.352;2024-02-14T11:48:33;17.00;66.20
22469;DHT22;11401;50.792;4.352;2024-02-14T11:51:01;17.00;66.40
22469;DHT22;11401;50.792;4.352;2024-02-14T11:53:29;17.10;66.50
22469;DHT22;11401;50.792;4.352;2024-02-14T11:55:56;17.10;66.10
22469;DHT22;11401;50.792;4.352;2024-02-14T11:58:24;17.30;65.80
22469;DHT22;11401;50.792;4.352;2024-02-14T12:00:50;17.20;65.70
22469;DHT22;11401;50.792;4.352;2024-02-14T12:03:22;17.20;65.80
22469;DHT22;11401;50.792;4.352;2024-02-14T12:05:52;17.20;65.80
22469;DHT22;11401;50.792;4.352;2024-02-14T12:08:21;17.10;65.80
22469;DHT22;11401;50.792;4.352;2024-02-14T12:10:49;17.20;66.20
22469;DHT22;11401;50.792;4.352;2024-02-14T12:13:22;17.20;65.60
22469;DHT22;11401;50.792;4.352;2024-02-14T12:15:51;17.20;65.70
22469;DHT22;11401;50.792;4.352;2024-02-14T12:18:20;17.20;65.80
22469;DHT22;11401;50.792;4.352;2024-02-14T12:20:49;17.30;65.80
22469;DHT22;11401;50.792;4.352;2024-02-14T12:23:22;17.20;66.10
22469;DHT22;11401;50.792;4.352;2024-02-14T12:25:50;17.30;66.10
22469;DHT22;11401;50.792;4.352;2024-02-14T12:28:18;17.20;66.00
22469;DHT22;11401;50.792;4.352;2024-02-14T12:30:47;17.20;66.30
22469;DHT22;11401;50.792;4.352;2024-02-14T12:33:17;17.20;66.60
22469;DHT22;11401;50.792;4.352;2024-02-14T12:35:46;17.30;65.90
22469;DHT22;11401;50.792;4.352;2024-02-14T12:38:15;17.30;65.70
22469;DHT22;11401;50.792;4.352;2024-02-14T12:40:43;17.30;65.80
22469;DHT22;11401;50.792;4.352;2024-02-14T12:43:14;17.20;66.10
22469;DHT22;11401;50.792;4.352;2024-02-14T12:45:43;17.30;65.90
22469;DHT22;11401;50.792;4.352;2024-02-14T12:48:12;17.40;65.60
22469;DHT22;11401;50.792;4.352;2024-02-14T12:50:41;17.40;65.40
22469;DHT22;11401;50.792;4.352;2024-02-14T12:53:16;17.50;65.00
22469;DHT22;11401;50.792;4.352;2024-02-14T12:55:43;17.50;64.90
22469;DHT22;11401;50.792;4.352;2024-02-14T12:58:10;17.50;65.00
22469;DHT22;11401;50.792;4.352;2024-02-14T13:00:38;17.50;64.90
22469;DHT22;11401;50.792;4.352;2024-02-14T13:03:05;17.60;65.00
22469;DHT22;11401;50.792;4.352;2024-02-14T13:05:32;17.50;64.80
22469;DHT22;11401;50.792;4.352;2024-02-14T13:08:00;17.60;65.00
22469;DHT22;11401;50.792;4.352;2024-02-14T13:10:29;17.60;64.60
22469;DHT22;11401;50.792;4.352;2024-02-14T13:12:58;17.60;64.70
22469;DHT22;11401;50.792;4.352;2024-02-14T13:15:26;17.60;65.00
22469;DHT22;11401;50.792;4.352;2024-02-14T13:17:53;17.60;64.70
22469;DHT22;11401;50.792;4.352;2024-02-14T13:20:21;17.60;65.00
22469;DHT22;11401;50.792;4.352;2024-02-14T13:22:49;17.60;64.80
22469;DHT22;11401;50.792;4.352;2024-02-14T13:25:16;17.60;64.60
22469;DHT22;11401;50.792;4.352;2024-02-14T13:27:44;17.60;64.40
22469;DHT22;11401;50.792;4.352;2024-02-14T13:30:11;17.60;64.70
22469;DHT22;11401;50.792;4.352;2024-02-14T13:32:40;17.60;65.50
22469;DHT22;11401;50.792;4.352;2024-02-14T13:35:07;17.60;65.30
22469;DHT22;11401;50.792;4.352;2024-02-14T13:37:35;17.50;65.40
22469;DHT22;11401;50.792;4.352;2024-02-14T13:40:02;17.50;65.60
22469;DHT22;11401;50.792;4.352;2024-02-14T13:42:31;17.50;65.90
22469;DHT22;11401;50.792;4.352;2024-02-14T13:44:58;17.40;66.20
22469;DHT22;11401;50.792;4.352;2024-02-14T13:47:25;17.40;66.10
22469;DHT22;11401;50.792;4.352;2024-02-14T13:49:52;17.50;66.40
22469;DHT22;11401;50.792;4.352;2024-02-14T13:52:19;17.50;66.00
22469;DHT22;11401;50.792;4.352;2024-02-14T13:54:47;17.60;65.60
22469;DHT22;11401;50.792;4.352;2024-02-14T13:57:14;17.50;65.80
22469;DHT22;11401;50.792;4.352;2024-02-14T13:59:44;17.60;65.70
22469;DHT22;11401;50.792;4.352;2024-02-14T14:02:12;17.60;65.30
22469;DHT22;11401;50.792;4.352;2024-02-14T14:04:40;17.50;65.60
22469;DHT22;11401;50.792;4.352;2024-02-14T14:07:07;17.60;65.60
22469;DHT22;11401;50.792;4.352;2024-02-14T14:09:35;17.60;65.40
22469;DHT22;11401;50.792;4.352;2024-02-14T14:12:02;17.60;65.70
22469;DHT22;11401;50.792;4.352;2024-02-14T14:14:29;17.50;65.90
22469;DHT22;11401;50.792;4.352;2024-02-14T14:16:57;17.60;65.50
22469;DHT22;11401;50.792;4.352;2024-02-14T14:19:27;17.60;65.40
22469;DHT22;11401;50.792;4.352;2024-02-14T14:21:54;17.70;64.70
22469;DHT22;11401;50.792;4.352;2024-02-14T14:24:22;17.60;64.70
22469;DHT22;11401;50.792;4.352;2024-02-14T14:26:50;17.60;65.10
22469;DHT22;11401;50.792;4.352;2024-02-14T14:29:18;17.60;65.10
22469;DHT22;11401;50.792;4.352;2024-02-14T14:31:45;17.60;65.40
22469;DHT22;11401;50.792;4.352;2024-02-14T14:34:12;17.60;65.60
22469;DHT22;11401;50.792;4.352;2024-02-14T14:36:39;17.60;65.60
22469;DHT22;11401;50.792;4.352;2024-02-14T14:39:08;17.60;65.70
22469;DHT22;11401;50.792;4.352;2024-02-14T14:41:38;17.70;65.40
22469;DHT22;11401;50.792;4.352;2024-02-14T14:44:05;17.60;65.70
22469;DHT22;11401;50.792;4.352;2024-02-14T14:46:32;17.60;65.80
22469;DHT22;11401;50.792;4.352;2024-02-14T14:49:02;17.60;66.00
22469;DHT22;11401;50.792;4.352;2024-02-14T14:51:29;17.60;66.10
22469;DHT22;11401;50.792;4.352;2024-02-14T14:53:57;17.50;66.30
22469;DHT22;11401;50.792;4.352;2024-02-14T14:56:24;17.50;66.10
22469;DHT22;11401;50.792;4.352;2024-02-14T14:58:53;17.50;66.20
22469;DHT22;11401;50.792;4.352;2024-02-14T15:01:20;17.50;66.30
22469;DHT22;11401;50.792;4.352;2024-02-14T15:03:47;17.60;66.40
22469;DHT22;11401;50.792;4.352;2024-02-14T15:06:14;17.60;65.80
22469;DHT22;11401;50.792;4.352;2024-02-14T15:08:42;17.60;65.90
22469;DHT22;11401;50.792;4.352;2024-02-14T15:11:11;17.70;65.60
22469;DHT22;11401;50.792;4.352;2024-02-14T15:13:42;17.60;65.60
22469;DHT22;11401;50.792;4.352;2024-02-14T15:16:11;17.70;65.60
22469;DHT22;11401;50.792;4.352;2024-02-14T15:18:40;17.70;65.40
22469;DHT22;11401;50.792;4.352;2024-02-14T15:21:11;17.60;65.50
22469;DHT22;11401;50.792;4.352;2024-02-14T15:23:41;17.70;65.80
22469;DHT22;11401;50.792;4.352;2024-02-14T15:26:08;17.70;65.90
22469;DHT22;11401;50.792;4.352;2024-02-14T15:28:39;17.70;66.10
22469;DHT22;11401;50.792;4.352;2024-02-14T15:31:08;17.70;66.20
22469;DHT22;11401;50.792;4.352;2024-02-14T15:33:54;17.70;66.10
22469;DHT22;11401;50.792;4.352;2024-02-14T15:36:22;17.70;65.90
22469;DHT22;11401;50.792;4.352;2024-02-14T15:38:50;17.70;65.70